Time;durP1;ratioP1;P1;durP2;ratioP2;P2;SDS_P1;SDS_P2;PMS_P1;PMS_P2;Temp;Humidity;BMP_temperature;BMP_pressure;BME280_temperature;BME280_humidity;BME280_pressure;Samples;Min_cycle;Max_cycle;Signal;HPM_P1;HPM_P2
2023/05/18 00:01:39;;;;;;;11.30;10.27;;;;;;;15.83;100.00;98897.91;5011836;28;20202;-65
2023/05/18 00:04:07;;;;;;;9.93;9.13;;;;;;;15.84;100.00;98902.19;5019043;28;20217;-65
2023/05/18 00:06:33;;;;;;;10.97;10.07;;;;;;;15.82;100.00;98890.91;5033368;28;20198;-66
2023/05/18 00:09:00;;;;;;;11.37;10.23;;;;;;;15.76;100.00;98889.22;5035005;28;20202;-66
2023/05/18 00:11:28;;;;;;;11.37;10.27;;;;;;;15.66;100.00;98889.06;5035233;28;20247;-65
2023/05/18 00:13:55;;;;;;;12.60;10.40;;;;;;;15.74;100.00;98898.56;5035221;28;20193;-66
2023/05/18 00:16:22;;;;;;;10.90;9.90;;;;;;;15.76;100.00;98893.75;5018524;28;20213;-63
2023/05/18 00:18:53;;;;;;;11.67;10.53;;;;;;;15.81;100.00;98894.66;5015338;28;20252;-63
2023/05/18 00:21:21;;;;;;;11.23;10.33;;;;;;;15.82;100.00;98885.56;5015226;28;20244;-65
2023/05/18 00:23:49;;;;;;;11.83;10.73;;;;;;;15.88;100.00;98886.44;5015348;28;20209;-64
2023/05/18 00:26:16;;;;;;;11.93;10.80;;;;;;;15.89;100.00;98886.19;5028760;28;20256;-64
2023/05/18 00:28:44;;;;;;;11.27;10.07;;;;;;;15.83;100.00;98892.56;5034612;28;20280;-64
2023/05/18 00:31:10;;;;;;;11.63;10.53;;;;;;;15.81;100.00;98888.50;5035225;28;20229;-64
2023/05/18 00:33:37;;;;;;;11.27;10.13;;;;;;;15.82;100.00;98890.13;5028192;28;20201;-64
2023/05/18 00:36:04;;;;;;;10.47;9.70;;;;;;;15.80;100.00;98887.69;5015248;28;20198;-65
2023/05/18 00:38:31;;;;;;;11.27;10.27;;;;;;;15.79;100.00;98883.38;5014847;28;20202;-65
2023/05/18 00:40:58;;;;;;;12.90;11.00;;;;;;;15.79;100.00;98891.41;5014611;28;20674;-66
2023/05/18 00:43:24;;;;;;;10.80;9.97;;;;;;;15.77;100.00;98877.44;5031930;28;20212;-65
2023/05/18 00:45:53;;;;;;;12.57;10.77;;;;;;;15.76;100.00;98880.34;5034742;28;20224;-65
2023/05/18 00:48:19;;;;;;;11.63;10.63;;;;;;;15.72;100.00;98880.03;5034469;28;20263;-64
2023/05/18 00:50:46;;;;;;;10.97;10.07;;;;;;;15.68;100.00;98883.44;5034507;28;20288;-65
2023/05/18 00:53:13;;;;;;;11.40;10.20;;;;;;;15.57;100.00;98882.47;5017791;28;20197;-65
2023/05/18 00:55:40;;;;;;;11.20;10.10;;;;;;;15.52;100.00;98885.06;5014308;28;20732;-65
2023/05/18 00:58:06;;;;;;;11.83;10.83;;;;;;;15.45;100.00;98876.38;5014329;28;20743;-64
2023/05/18 01:00:36;;;;;;;14.63;13.10;;;;;;;15.46;100.00;98886.06;5014330;28;20197;-64
2023/05/18 01:03:05;;;;;;;13.10;11.80;;;;;;;15.45;100.00;98889.75;5027781;28;20616;-64
2023/05/18 01:05:31;;;;;;;15.37;12.53;;;;;;;15.40;100.00;98878.97;5016435;28;20644;-64
2023/05/18 01:07:58;;;;;;;15.20;12.90;;;;;;;15.29;100.00;98887.88;5014228;28;20203;-65
2023/05/18 01:10:25;;;;;;;16.03;12.90;;;;;;;15.27;100.00;98889.94;5014105;28;20570;-65
2023/05/18 01:12:56;;;;;;;16.80;14.13;;;;;;;15.23;100.00;98890.66;5026247;28;20561;-65
2023/05/18 01:15:32;;;;;;;22.33;14.23;;;;;;;15.21;100.00;98888.25;5033110;28;20201;-65
2023/05/18 01:18:15;;;;;;;21.83;15.30;;;;;;;15.20;100.00;98886.59;5033918;28;20182;-64
2023/05/18 01:20:46;;;;;;;20.73;15.23;;;;;;;15.20;100.00;98896.50;5034057;28;20191;-64
2023/05/18 01:23:45;;;;;;;17.57;15.67;;;;;;;15.19;100.00;98895.69;5018125;28;20216;-64
2023/05/18 01:26:23;;;;;;;26.07;18.30;;;;;;;15.21;100.00;98888.25;5013750;28;20213;-65
2023/05/18 01:28:51;;;;;;;29.23;20.33;;;;;;;15.23;100.00;98886.13;5013679;28;20646;-65
2023/05/18 01:31:17;;;;;;;30.77;20.40;;;;;;;15.26;100.00;98888.34;5013720;28;20280;-65
2023/05/18 01:33:44;;;;;;;40.17;22.40;;;;;;;15.29;100.00;98890.53;5032206;28;20739;-65
2023/05/18 01:36:11;;;;;;;39.47;22.50;;;;;;;15.32;100.00;98895.38;5033621;28;20196;-65
2023/05/18 01:38:39;;;;;;;36.73;22.47;;;;;;;15.33;100.00;98891.69;5033553;28;20190;-67
2023/05/18 01:41:13;;;;;;;59.40;24.30;;;;;;;15.29;100.00;98884.38;5021955;28;20194;-65
2023/05/18 01:43:47;;;;;;;43.00;22.07;;;;;;;15.36;100.00;98891.22;5013716;28;20186;-66
2023/05/18 01:46:17;;;;;;;36.40;21.93;;;;;;;15.39;100.00;98890.72;5013703;28;20608;-65
2023/05/18 01:48:51;;;;;;;42.90;23.73;;;;;;;15.41;100.00;98896.66;5013504;28;20189;-65
2023/05/18 01:51:21;;;;;;;34.17;22.63;;;;;;;15.44;100.00;98898.84;5024960;28;20644;-65
2023/05/18 01:53:55;;;;;;;64.33;23.73;;;;;;;15.45;100.00;98911.16;5032896;28;20280;-65
2023/05/18 01:56:22;;;;;;;39.10;22.97;;;;;;;15.45;100.00;98905.03;5033360;28;20190;-65
2023/05/18 01:58:50;;;;;;;30.40;21.33;;;;;;;15.41;100.00;98903.88;5033177;28;20193;-65
2023/05/18 02:01:18;;;;;;;30.70;20.83;;;;;;;15.42;100.00;98903.66;5021030;28;20205;-66
2023/05/18 02:03:45;;;;;;;27.43;20.70;;;;;;;15.39;100.00;98914.81;5015843;28;20235;-66
2023/05/18 02:06:12;;;;;;;57.37;22.63;;;;;;;15.40;100.00;98913.75;5032998;28;20225;-65
2023/05/18 02:08:39;;;;;;;28.37;21.67;;;;;;;15.36;100.00;98899.25;5033058;28;20194;-66
2023/05/18 02:11:06;;;;;;;29.57;21.53;;;;;;;15.40;100.00;98916.44;5031487;28;20193;-65
2023/05/18 02:13:32;;;;;;;27.10;22.37;;;;;;;15.44;100.00;98920.25;5032944;28;20247;-65
2023/05/18 02:16:01;;;;;;;25.90;20.90;;;;;;;15.47;100.00;98935.84;5032608;28;20669;-65
2023/05/18 02:18:27;;;;;;;24.70;20.50;;;;;;;15.49;100.00;98941.75;5032201;28;20769;-64
2023/05/18 02:20:59;;;;;;;24.27;20.57;;;;;;;15.49;100.00;98930.25;5031589;28;20259;-65
2023/05/18 02:23:25;;;;;;;23.23;18.90;;;;;;;15.52;100.00;98938.59;5032830;28;20217;-64
2023/05/18 02:25:54;;;;;;;22.50;19.23;;;;;;;15.56;100.00;98942.41;5032285;28;20628;-64
2023/05/18 02:28:21;;;;;;;23.43;20.03;;;;;;;15.59;100.00;98944.63;5032401;28;20581;-64
2023/05/18 02:30:48;;;;;;;23.53;19.03;;;;;;;15.60;100.00;98943.56;5027743;28;20316;-64
2023/05/18 02:33:16;;;;;;;24.33;19.43;;;;;;;15.61;100.00;98939.81;5012954;28;20198;-64
2023/05/18 02:35:43;;;;;;;72.07;21.57;;;;;;;15.56;100.00;98941.63;5012860;28;20292;-64
2023/05/18 02:38:10;;;;;;;89.53;20.73;;;;;;;15.46;100.00;98944.94;5012369;28;20666;-64
2023/05/18 02:40:36;;;;;;;69.43;21.40;;;;;;;15.46;100.00;98949.47;5015105;28;20205;-64
2023/05/18 02:43:03;;;;;;;24.40;19.00;;;;;;;15.47;100.00;98945.72;5032362;28;20201;-64
2023/05/18 02:45:30;;;;;;;21.40;19.10;;;;;;;15.48;100.00;98953.53;5032061;28;20716;-64
2023/05/18 02:47:56;;;;;;;23.23;18.77;;;;;;;15.50;100.00;98956.78;5032386;28;20267;-65
2023/05/18 02:50:24;;;;;;;34.67;20.80;;;;;;;15.49;100.00;98952.47;5017262;28;20631;-64
2023/05/18 02:52:51;;;;;;;47.17;20.47;;;;;;;15.43;100.00;98950.75;5012312;28;20264;-64
2023/05/18 02:55:18;;;;;;;28.80;20.50;;;;;;;15.41;100.00;98947.50;5012299;28;20202;-64
2023/05/18 02:57:46;;;;;;;31.77;19.50;;;;;;;15.45;100.00;98963.91;5012621;28;20284;-65
2023/05/18 03:00:15;;;;;;;58.73;20.60;;;;;;;15.46;100.00;98961.00;5024447;28;20196;-64
2023/05/18 03:02:43;;;;;;;33.33;20.47;;;;;;;15.35;100.00;98959.16;5032259;28;20316;-65
2023/05/18 03:05:09;;;;;;;49.50;18.00;;;;;;;15.26;100.00;98965.94;5018089;28;20214;-65
2023/05/18 03:07:37;;;;;;;36.47;19.23;;;;;;;15.23;100.00;98971.75;5012613;28;20197;-65
2023/05/18 03:10:06;;;;;;;47.07;18.83;;;;;;;15.12;100.00;98956.53;5022802;28;20645;-65
2023/05/18 03:12:33;;;;;;;46.97;19.67;;;;;;;15.18;100.00;98974.34;5032286;28;20201;-65
2023/05/18 03:15:00;;;;;;;32.10;20.33;;;;;;;15.22;100.00;98980.84;5031988;28;20288;-66
2023/05/18 03:17:26;;;;;;;81.90;20.77;;;;;;;15.19;100.00;98981.31;5032069;28;20193;-66
2023/05/18 03:19:53;;;;;;;43.63;20.27;;;;;;;15.20;100.00;98984.81;5021615;28;20674;-66
2023/05/18 03:22:20;;;;;;;32.37;21.00;;;;;;;15.14;100.00;98983.88;5012287;28;20198;-66
2023/05/18 03:24:50;;;;;;;31.70;21.40;;;;;;;15.16;100.00;98987.13;5012211;28;20206;-65
2023/05/18 03:27:17;;;;;;;48.43;21.47;;;;;;;15.20;100.00;98996.28;5012187;28;20261;-65
2023/05/18 03:29:44;;;;;;;29.77;21.13;;;;;;;15.20;100.00;99004.31;5019377;28;20304;-65
2023/05/18 03:32:11;;;;;;;33.27;22.03;;;;;;;15.24;100.00;99002.00;5032230;28;20185;-65
2023/05/18 03:34:38;;;;;;;33.27;20.33;;;;;;;15.27;100.00;98996.16;5031929;28;20197;-65
2023/05/18 03:37:05;;;;;;;48.80;21.27;;;;;;;15.22;100.00;99001.41;5031941;28;20628;-65
2023/05/18 03:39:32;;;;;;;29.77;20.77;;;;;;;15.19;100.00;98997.34;5027706;28;20221;-65
2023/05/18 03:42:00;;;;;;;30.90;21.13;;;;;;;15.20;100.00;98998.19;5016543;28;20600;-65
2023/05/18 03:44:26;;;;;;;33.37;21.30;;;;;;;15.21;100.00;99000.63;5025936;28;20559;-65
2023/05/18 03:46:53;;;;;;;34.37;21.77;;;;;;;15.23;100.00;98998.50;5035549;28;20696;-65
2023/05/18 03:49:20;;;;;;;29.40;21.27;;;;;;;15.25;100.00;98999.09;5035388;28;20263;-64
2023/05/18 03:51:47;;;;;;;29.23;21.07;;;;;;;15.22;100.00;99012.94;5034144;28;20618;-64
2023/05/18 03:54:13;;;;;;;25.93;20.40;;;;;;;15.17;100.00;99007.50;5035282;28;20259;-65
2023/05/18 03:56:40;;;;;;;27.07;19.97;;;;;;;15.14;100.00;99013.31;5033979;28;20664;-61
2023/05/18 03:59:09;;;;;;;29.17;21.77;;;;;;;15.15;100.00;99012.25;5035406;28;20221;-62
2023/05/18 04:01:35;;;;;;;31.63;22.57;;;;;;;15.20;100.00;99012.34;5034861;28;20198;-63
2023/05/18 04:04:02;;;;;;;26.90;21.37;;;;;;;15.26;100.00;99019.44;5029005;28;20213;-62
2023/05/18 04:06:29;;;;;;;26.17;20.60;;;;;;;15.30;100.00;99015.25;5015507;28;20218;-62
2023/05/18 04:08:56;;;;;;;30.60;22.43;;;;;;;15.36;100.00;99011.63;5015409;28;20284;-62
2023/05/18 04:11:23;;;;;;;29.20;20.57;;;;;;;15.41;100.00;99017.09;5015162;28;20694;-62
2023/05/18 04:13:50;;;;;;;28.93;21.47;;;;;;;15.38;100.00;99012.22;5027344;28;20190;-62
2023/05/18 04:16:18;;;;;;;29.73;21.83;;;;;;;15.42;100.00;99024.09;5020270;28;20247;-62
2023/05/18 04:18:45;;;;;;;31.70;21.37;;;;;;;15.50;100.00;99028.22;5029358;28;20621;-62
2023/05/18 04:21:11;;;;;;;29.57;20.97;;;;;;;15.56;100.00;99029.97;5034690;28;20255;-62
2023/05/18 04:23:39;;;;;;;31.17;21.17;;;;;;;15.61;100.00;99033.53;5033451;28;20194;-63
2023/05/18 04:26:06;;;;;;;30.30;20.77;;;;;;;15.66;100.00;99035.50;5034359;28;20574;-62
2023/05/18 04:28:33;;;;;;;37.10;23.10;;;;;;;15.67;100.00;99035.28;5034406;28;20236;-62
2023/05/18 04:31:00;;;;;;;35.53;23.10;;;;;;;15.65;100.00;99042.72;5034860;28;20697;-62
2023/05/18 04:33:28;;;;;;;31.57;22.53;;;;;;;15.63;100.00;99042.16;5019675;28;20198;-61
2023/05/18 04:35:57;;;;;;;30.97;22.00;;;;;;;15.67;100.00;99043.31;5014611;28;20198;-62
2023/05/18 04:38:24;;;;;;;30.57;20.43;;;;;;;15.64;100.00;99049.13;5014909;28;20198;-63
2023/05/18 04:40:52;;;;;;;31.20;20.83;;;;;;;15.68;100.00;99044.91;5014321;28;20190;-63
2023/05/18 04:43:19;;;;;;;29.70;22.07;;;;;;;15.74;100.00;99045.84;5026842;28;20628;-63
2023/05/18 04:45:49;;;;;;;30.87;20.97;;;;;;;15.79;100.00;99046.75;5034157;28;20227;-62
2023/05/18 04:48:16;;;;;;;32.93;22.27;;;;;;;15.83;100.00;99049.75;5034352;28;20197;-63
2023/05/18 04:50:45;;;;;;;29.33;20.37;;;;;;;15.85;100.00;99048.44;5028560;28;20186;-63
2023/05/18 04:53:12;;;;;;;27.37;20.17;;;;;;;15.86;100.00;99052.75;5018690;28;20186;-63
2023/05/18 04:55:41;;;;;;;29.07;20.50;;;;;;;15.92;100.00;99050.97;5022926;28;20225;-63
2023/05/18 04:58:09;;;;;;;28.60;20.10;;;;;;;15.96;100.00;99059.34;5016643;28;20277;-63
2023/05/18 05:00:36;;;;;;;28.87;19.83;;;;;;;15.97;100.00;99058.28;5021203;28;20201;-63
2023/05/18 05:03:03;;;;;;;31.33;20.03;;;;;;;16.06;100.00;99062.22;5034049;28;20201;-62
2023/05/18 05:05:30;;;;;;;23.73;18.83;;;;;;;16.07;100.00;99063.81;5016900;28;20201;-62
2023/05/18 05:07:58;;;;;;;27.33;18.53;;;;;;;16.06;100.00;99056.84;5014242;28;20648;-63
2023/05/18 05:10:26;;;;;;;27.10;19.60;;;;;;;16.08;100.00;99062.78;5013890;28;20624;-62
2023/05/18 05:12:53;;;;;;;25.43;18.47;;;;;;;16.04;100.00;99067.81;5013881;28;20202;-62
2023/05/18 05:15:20;;;;;;;25.00;18.00;;;;;;;16.05;100.00;99060.59;5012578;28;20194;-62
2023/05/18 05:17:47;;;;;;;25.17;19.43;;;;;;;16.06;100.00;99056.84;5013704;28;20626;-62
2023/05/18 05:20:14;;;;;;;23.47;18.87;;;;;;;16.10;100.00;99068.72;5013772;28;20194;-63
2023/05/18 05:22:41;;;;;;;25.20;19.00;;;;;;;16.09;100.00;99070.56;5033472;28;20197;-63
2023/05/18 05:25:10;;;;;;;23.37;18.03;;;;;;;16.04;100.00;99069.69;5013553;28;20748;-62
2023/05/18 05:27:37;;;;;;;25.47;17.93;;;;;;;16.07;100.00;99066.50;5012719;28;20717;-62
2023/05/18 05:30:04;;;;;;;20.93;16.97;;;;;;;16.10;100.00;99068.72;5027403;28;20237;-62
2023/05/18 05:32:31;;;;;;;23.20;16.37;;;;;;;16.10;100.00;99071.38;5022469;28;20197;-61
2023/05/18 05:34:58;;;;;;;24.30;17.33;;;;;;;16.11;100.00;99081.03;5012966;28;20202;-62
2023/05/18 05:37:25;;;;;;;26.67;19.67;;;;;;;16.05;100.00;99084.69;5012599;28;20201;-61
2023/05/18 05:39:51;;;;;;;23.83;18.70;;;;;;;16.08;100.00;99081.53;5025951;28;20255;-61
2023/05/18 05:42:20;;;;;;;21.80;18.23;;;;;;;15.97;100.00;99074.38;5031918;28;20735;-62
2023/05/18 05:44:46;;;;;;;20.07;13.67;;;;;;;16.31;100.00;99092.13;5032501;28;20255;-61
2023/05/18 05:47:13;;;;;;;28.57;23.00;;;;;;;16.67;100.00;99097.88;5032365;28;20769;-62
2023/05/18 05:49:40;;;;;;;29.57;22.73;;;;;;;16.78;100.00;99094.25;5028335;28;20193;-62
2023/05/18 05:52:07;;;;;;;20.93;17.73;;;;;;;16.73;100.00;99106.78;5032491;28;20560;-62
2023/05/18 05:54:34;;;;;;;21.13;17.10;;;;;;;16.69;100.00;99111.81;5032192;28;20194;-62
2023/05/18 05:57:00;;;;;;;19.00;17.00;;;;;;;16.70;100.00;99108.06;5030063;28;20201;-62
2023/05/18 05:59:28;;;;;;;18.93;17.07;;;;;;;16.72;100.00;99115.88;5028115;28;20197;-62
2023/05/18 06:01:55;;;;;;;20.87;17.37;;;;;;;16.64;100.00;99113.59;5028167;28;20257;-62
2023/05/18 06:04:22;;;;;;;24.23;18.37;;;;;;;16.67;100.00;99123.84;5025381;28;20201;-62
2023/05/18 06:06:49;;;;;;;21.10;17.83;;;;;;;16.70;100.00;99123.38;5030544;28;20279;-62
2023/05/18 06:09:16;;;;;;;23.53;19.03;;;;;;;16.69;100.00;99121.72;5032293;28;20216;-63
2023/05/18 06:11:42;;;;;;;20.00;17.90;;;;;;;16.72;100.00;99126.63;5031777;28;20739;-62
2023/05/18 06:14:09;;;;;;;38.33;30.00;;;;;;;16.71;100.00;99125.81;5032140;28;20317;-62
2023/05/18 06:16:37;;;;;;;34.93;29.07;;;;;;;16.74;100.00;99135.25;5028684;28;20198;-63
2023/05/18 06:19:04;;;;;;;28.47;23.23;;;;;;;16.78;100.00;99136.38;5020635;28;20365;-62
2023/05/18 06:21:31;;;;;;;29.30;20.80;;;;;;;16.77;100.00;99140.94;5020744;28;20215;-63
2023/05/18 06:24:00;;;;;;;30.57;22.53;;;;;;;16.81;100.00;99139.38;5021758;28;20681;-63
2023/05/18 06:26:26;;;;;;;30.17;21.70;;;;;;;16.86;100.00;99139.44;5016859;28;20708;-62
2023/05/18 06:28:53;;;;;;;27.83;20.57;;;;;;;16.82;100.00;99145.56;5019974;28;20190;-63
2023/05/18 06:31:20;;;;;;;31.37;22.33;;;;;;;16.83;100.00;99149.88;5017878;28;20769;-63
2023/05/18 06:33:48;;;;;;;17.50;13.23;;;;;;;16.89;100.00;99148.88;5015156;28;20745;-63
2023/05/18 06:36:15;;;;;;;15.37;12.87;;;;;;;17.27;100.00;99157.00;5027188;28;20227;-63
2023/05/18 06:38:42;;;;;;;17.00;14.80;;;;;;;17.66;100.00;99161.28;5020677;28;20560;-63
2023/05/18 06:41:09;;;;;;;18.23;15.23;;;;;;;17.99;100.00;99166.53;5028201;28;20614;-63
2023/05/18 06:43:35;;;;;;;18.13;15.53;;;;;;;18.37;100.00;99171.81;5027403;28;20259;-63
2023/05/18 06:46:02;;;;;;;21.60;14.03;;;;;;;18.72;100.00;99172.16;5028464;28;20201;-61
2023/05/18 06:48:29;;;;;;;18.63;16.60;;;;;;;18.94;100.00;99172.88;5021686;28;20661;-60
2023/05/18 06:50:57;;;;;;;20.90;18.67;;;;;;;19.12;96.31;99189.44;5022806;28;20220;-60
2023/05/18 06:53:25;;;;;;;21.93;17.70;;;;;;;19.21;94.95;99195.16;5028353;28;20245;-60
2023/05/18 06:55:51;;;;;;;23.77;19.13;;;;;;;18.87;92.62;99202.69;5027412;28;20193;-60
2023/05/18 06:58:18;;;;;;;16.67;14.67;;;;;;;18.57;94.28;99196.22;5027819;28;20205;-60
2023/05/18 07:00:45;;;;;;;29.10;20.43;;;;;;;18.60;93.64;99206.50;5024178;28;20202;-64
2023/05/18 07:03:12;;;;;;;26.27;20.33;;;;;;;18.45;93.21;99214.41;5021213;28;20202;-63
2023/05/18 07:05:38;;;;;;;32.23;20.07;;;;;;;18.37;94.11;99222.91;5020474;28;20209;-63
2023/05/18 07:08:07;;;;;;;26.87;20.03;;;;;;;18.32;94.42;99220.97;5028399;28;20718;-63
2023/05/18 07:10:34;;;;;;;31.70;19.80;;;;;;;17.98;93.77;99214.13;5027402;28;20197;-63
2023/05/18 07:13:01;;;;;;;17.93;14.30;;;;;;;17.76;95.87;99221.34;5026330;28;20263;-64
2023/05/18 07:15:27;;;;;;;15.93;12.80;;;;;;;17.74;96.75;99223.47;5018698;28;20213;-64
2023/05/18 07:17:54;;;;;;;13.13;11.73;;;;;;;17.23;97.98;99215.72;5027243;28;20201;-64
2023/05/18 07:20:21;;;;;;;14.07;10.93;;;;;;;17.16;99.40;99216.94;5025639;28;20200;-64
2023/05/18 07:22:48;;;;;;;15.30;10.83;;;;;;;17.25;100.00;99215.47;5025237;28;20736;-64
2023/05/18 07:25:16;;;;;;;13.27;10.10;;;;;;;17.26;100.00;99217.91;5025347;28;20254;-63
2023/05/18 07:27:43;;;;;;;10.63;9.60;;;;;;;17.09;100.00;99217.09;5020204;28;20769;-63
2023/05/18 07:30:10;;;;;;;12.63;10.60;;;;;;;17.05;100.00;99217.81;5019783;28;20222;-63
2023/05/18 07:32:37;;;;;;;12.53;10.30;;;;;;;16.90;100.00;99198.81;5027710;28;20277;-64
2023/05/18 07:35:04;;;;;;;10.60;9.60;;;;;;;16.95;100.00;99233.78;5027393;28;20241;-64
2023/05/18 07:37:31;;;;;;;10.03;8.93;;;;;;;16.97;100.00;99221.75;5028083;28;20286;-64
2023/05/18 07:39:58;;;;;;;10.10;9.07;;;;;;;17.08;100.00;99228.91;5023527;28;20198;-64
2023/05/18 07:42:26;;;;;;;8.83;8.00;;;;;;;17.08;100.00;99223.53;5028291;28;20201;-64
2023/05/18 07:44:53;;;;;;;8.23;7.63;;;;;;;17.03;100.00;99225.31;5027117;28;20272;-63
2023/05/18 07:47:20;;;;;;;7.87;7.20;;;;;;;17.12;100.00;99224.69;5026582;28;20217;-63
2023/05/18 07:49:47;;;;;;;8.23;7.27;;;;;;;17.16;100.00;99217.78;5027848;28;20710;-63
2023/05/18 07:52:16;;;;;;;7.63;6.93;;;;;;;17.14;100.00;99221.72;5026902;28;20193;-63
2023/05/18 07:54:43;;;;;;;8.17;6.47;;;;;;;17.15;100.00;99226.06;5020386;28;20579;-63
2023/05/18 07:57:10;;;;;;;7.40;6.70;;;;;;;17.29;100.00;99230.03;5020152;28;20213;-63
2023/05/18 07:59:38;;;;;;;7.13;6.27;;;;;;;17.24;99.11;99227.28;5027502;28;20197;-62
2023/05/18 08:02:05;;;;;;;7.70;7.00;;;;;;;17.36;100.00;99225.31;5028160;28;20255;-62
2023/05/18 08:04:31;;;;;;;7.53;6.90;;;;;;;17.45;99.80;99226.53;5023657;28;20680;-63
2023/05/18 08:06:59;;;;;;;7.47;6.77;;;;;;;17.54;99.12;99228.56;5027728;28;20232;-63
2023/05/18 08:09:26;;;;;;;6.17;5.77;;;;;;;17.70;99.07;99237.66;5027348;28;20194;-64
2023/05/18 08:11:53;;;;;;;6.90;6.17;;;;;;;17.73;96.61;99247.91;5018664;28;20657;-64
2023/05/18 08:14:20;;;;;;;6.67;5.97;;;;;;;17.78;96.77;99246.09;5024838;28;20580;-63
2023/05/18 08:16:48;;;;;;;5.83;5.33;;;;;;;17.81;93.41;99256.34;5026941;28;20291;-63
2023/05/18 08:19:15;;;;;;;6.27;5.60;;;;;;;17.87;94.29;99260.72;5026830;28;20278;-63
2023/05/18 08:21:42;;;;;;;5.97;5.53;;;;;;;17.70;92.05;99259.97;5026335;28;20738;-63
2023/05/18 08:24:09;;;;;;;8.27;6.27;;;;;;;17.83;93.42;99259.59;5022418;28;20233;-63
2023/05/18 08:26:36;;;;;;;7.67;7.07;;;;;;;17.93;92.81;99259.72;5030531;28;20209;-63
2023/05/18 08:29:08;;;;;;;7.03;6.40;;;;;;;18.00;90.14;99270.28;5030652;28;20201;-63
2023/05/18 08:31:35;;;;;;;8.10;6.53;;;;;;;18.04;89.21;99284.84;5029811;28;20918;-64
2023/05/18 08:34:04;;;;;;;7.93;7.20;;;;;;;18.11;89.92;99277.44;5027582;28;20749;-63
2023/05/18 08:36:32;;;;;;;13.47;9.80;;;;;;;18.08;89.48;99277.91;5029529;28;20243;-63
2023/05/18 08:38:58;;;;;;;14.10;9.17;;;;;;;18.12;90.13;99279.06;5026410;28;20198;-63
2023/05/18 08:41:29;;;;;;;8.40;7.60;;;;;;;18.22;91.02;99279.19;5030352;28;20196;-63
2023/05/18 08:44:01;;;;;;;8.33;7.43;;;;;;;18.19;91.02;99277.00;5030491;28;20662;-63
2023/05/18 08:46:33;;;;;;;11.97;6.53;;;;;;;18.27;89.41;99295.38;5015469;28;20190;-63
2023/05/18 08:49:01;;;;;;;11.80;8.20;;;;;;;18.39;89.41;99290.72;5020685;28;20266;-64
2023/05/18 08:51:34;;;;;;;9.50;7.07;;;;;;;18.40;86.21;99295.03;5022261;28;20264;-63
2023/05/18 08:54:01;;;;;;;7.80;6.67;;;;;;;18.58;86.98;99300.09;5021735;28;20266;-62
2023/05/18 08:56:31;;;;;;;6.67;5.73;;;;;;;18.72;86.63;99306.72;5020488;28;20197;-64
2023/05/18 08:58:59;;;;;;;6.83;6.33;;;;;;;18.84;85.42;99310.88;5030305;28;20220;-64
2023/05/18 09:01:27;;;;;;;8.27;4.60;;;;;;;18.86;81.51;99326.75;5022510;28;20193;-63
2023/05/18 09:03:56;;;;;;;5.03;4.23;;;;;;;18.98;80.39;99330.13;5026428;28;20280;-63
2023/05/18 09:06:25;;;;;;;5.97;4.83;;;;;;;19.13;77.75;99335.66;5020925;28;20284;-64
2023/05/18 09:08:54;;;;;;;6.70;5.20;;;;;;;19.27;79.22;99328.81;5028941;28;20234;-64
2023/05/18 09:11:22;;;;;;;6.33;4.87;;;;;;;19.49;78.80;99340.34;5016251;28;20207;-64
2023/05/18 09:13:50;;;;;;;4.87;4.43;;;;;;;19.61;77.55;99344.47;5029540;28;20198;-64
2023/05/18 09:16:17;;;;;;;4.33;4.03;;;;;;;19.56;75.43;99354.41;5029446;28;20280;-64
2023/05/18 09:18:44;;;;;;;4.10;3.57;;;;;;;19.67;74.89;99342.63;5027221;28;20723;-64
2023/05/18 09:21:11;;;;;;;4.23;3.50;;;;;;;19.83;74.01;99345.19;5023097;28;20206;-66
2023/05/18 09:23:39;;;;;;;6.07;3.77;;;;;;;20.01;72.60;99360.13;5028063;28;20561;-65
2023/05/18 09:26:08;;;;;;;3.60;3.30;;;;;;;20.12;71.33;99356.44;5028615;28;20624;-66
2023/05/18 09:28:37;;;;;;;5.13;3.33;;;;;;;20.07;66.25;99369.88;5021824;28;20229;-66
2023/05/18 09:31:04;;;;;;;3.60;2.90;;;;;;;20.12;68.18;99364.53;5025483;28;20225;-66
2023/05/18 09:33:34;;;;;;;5.93;3.10;;;;;;;20.21;65.82;99371.06;5028755;28;20209;-66
2023/05/18 09:36:01;;;;;;;5.37;2.37;;;;;;;20.21;63.02;99374.59;5028540;28;20205;-67
2023/05/18 09:38:28;;;;;;;8.63;2.73;;;;;;;20.28;64.24;99377.03;5025031;28;20208;-66
2023/05/18 09:40:55;;;;;;;2.97;2.70;;;;;;;20.17;64.11;99370.78;5015621;28;20256;-66
2023/05/18 09:43:23;;;;;;;8.97;2.87;;;;;;;20.25;62.95;99380.25;5019893;28;20230;-65
2023/05/18 09:45:50;;;;;;;8.27;3.07;;;;;;;20.33;64.04;99374.38;5027017;28;20631;-65
2023/05/18 09:48:17;;;;;;;2.90;2.70;;;;;;;20.16;65.20;99373.72;5020788;28;20776;-66
2023/05/18 09:50:44;;;;;;;3.50;3.20;;;;;;;19.99;65.36;99378.44;5020785;28;20386;-67
2023/05/18 09:53:12;;;;;;;3.63;2.53;;;;;;;20.00;62.74;99386.28;5022537;28;20289;-67
2023/05/18 09:55:46;;;;;;;2.90;2.27;;;;;;;20.13;62.55;99398.53;5022582;28;20667;-67
2023/05/18 09:58:12;;;;;;;3.93;2.70;;;;;;;20.30;62.88;99396.50;5028846;28;20220;-68
2023/05/18 10:00:43;;;;;;;3.77;2.63;;;;;;;20.26;59.10;99395.38;5021167;28;20205;-68
2023/05/18 10:03:17;;;;;;;6.80;3.10;;;;;;;20.27;61.24;99394.31;5027911;28;20201;-68
2023/05/18 10:05:44;;;;;;;3.47;2.73;;;;;;;20.41;61.54;99388.19;5014387;28;20720;-68
2023/05/18 10:08:13;;;;;;;5.87;2.80;;;;;;;20.58;61.29;99391.50;5028319;28;20707;-68
2023/05/18 10:10:44;;;;;;;4.13;3.07;;;;;;;20.53;59.51;99375.28;5027397;28;20291;-68
2023/05/18 10:13:16;;;;;;;4.23;2.43;;;;;;;20.76;58.60;99401.03;5028621;28;20276;-66
2023/05/18 10:15:53;;;;;;;2.80;2.60;;;;;;;20.75;57.18;99404.81;5011719;28;20183;-70
2023/05/18 10:18:22;;;;;;;4.37;2.87;;;;;;;20.68;58.12;99404.25;5017673;28;20269;-69
2023/05/18 10:20:50;;;;;;;2.70;2.50;;;;;;;20.47;56.17;99411.41;5024512;28;20203;-68
2023/05/18 10:23:18;;;;;;;2.90;2.70;;;;;;;20.47;57.41;99410.63;5022312;28;20186;-67
2023/05/18 10:25:47;;;;;;;3.53;3.33;;;;;;;20.65;57.66;99410.16;5025651;28;20648;-68
2023/05/18 10:28:23;;;;;;;4.20;2.40;;;;;;;20.68;57.51;99409.63;5018546;28;20217;-71
2023/05/18 10:30:53;;;;;;;2.30;2.20;;;;;;;20.72;57.71;99415.31;5008678;28;20643;-71
2023/05/18 10:33:20;;;;;;;3.10;2.17;;;;;;;20.72;56.75;99418.84;5023363;28;20196;-70
2023/05/18 10:35:49;;;;;;;4.97;2.00;;;;;;;20.87;56.01;99413.50;5031793;28;20691;-71
2023/05/18 10:38:19;;;;;;;4.47;2.63;;;;;;;21.05;55.35;99418.47;5032136;28;20233;-72
2023/05/18 10:40:48;;;;;;;4.90;2.87;;;;;;;20.98;55.96;99411.69;5032391;28;20189;-71
2023/05/18 10:43:18;;;;;;;3.70;2.23;;;;;;;21.11;55.26;99414.69;5031860;28;20617;-72
2023/05/18 10:45:47;;;;;;;6.13;2.60;;;;;;;21.21;56.39;99406.63;5031879;28;20229;-73
2023/05/18 10:48:16;;;;;;;4.50;2.80;;;;;;;20.75;57.29;99410.22;5032102;28;20220;-72
2023/05/18 10:50:43;;;;;;;5.50;2.03;;;;;;;20.87;57.68;99413.50;5028916;28;20280;-73
2023/05/18 10:53:10;;;;;;;5.23;2.57;;;;;;;21.06;57.48;99416.59;5026348;28;20189;-73
2023/05/18 10:55:37;;;;;;;3.07;2.20;;;;;;;21.13;54.81;99422.53;5032167;28;20247;-67
2023/05/18 10:58:09;;;;;;;7.57;2.33;;;;;;;21.22;55.04;99419.03;5032104;28;20201;-74
2023/05/18 11:00:38;;;;;;;5.10;2.87;;;;;;;21.26;56.23;99420.13;5031806;28;20272;-73
2023/05/18 11:03:09;;;;;;;4.30;2.43;;;;;;;21.24;55.18;99419.59;5031747;28;20193;-73
2023/05/18 11:05:38;;;;;;;2.97;2.43;;;;;;;21.27;55.09;99424.44;5014280;28;20268;-74
2023/05/18 11:08:05;;;;;;;3.90;2.70;;;;;;;21.26;53.69;99417.44;5012504;28;20589;-73
2023/05/18 11:10:39;;;;;;;3.20;2.93;;;;;;;21.15;53.88;99421.19;5012319;28;20208;-73
2023/05/18 11:13:07;;;;;;;6.13;2.73;;;;;;;21.16;55.24;99417.41;5012526;28;20196;-73
2023/05/18 11:16:08;;;;;;;2.57;2.37;;;;;;;20.95;57.25;99423.81;5011933;28;20201;-71
2023/05/18 11:18:38;;;;;;;2.57;2.37;;;;;;;20.88;57.67;99423.22;5012309;28;20284;-71
2023/05/18 11:21:18;;;;;;;3.73;2.53;;;;;;;20.89;56.40;99437.53;5012151;28;20256;-70